logo
Search for airport 
image banner adimage banner adimage banner ad
image banner ad

OIZJ - Jask

Located in Jask, Iran, Islamic Republic of

ICAO - OIZJ, IATA - JSK

Data provided by Airmate  

General information

Coordinates: N25°39'13" E57°47'57"
Elevation is 32 feet MSL.
Magnetic variation is 2° East
View others Airports in Hormozgan Province

Operational data

Special qualification required
Current time UTC:
Current local time:
Weather
METAR: OIZJ 130500Z 14006KT 8000 NSC 27/24 Q1006
View NOTAMs / SUP AIP / TFR affecting this airport [VIEW]
Communications frequencies: [VIEW]

Runways:

RWY identifierQFULength (ft)Width (ft)SurfaceLDA (ft)
0662°7677148UNK
24242°7677148UNK

Airport contact information

Address: Jask Iran, Islamic Republic of

Satellite view of OIZJ